sensor_id;sensor_type;location;lat;lon;timestamp;temperature;humidity
69543;SHT31;56762;49.494;11.768;2023-04-01T00:01:13;8.10;87.04
69543;SHT31;56762;49.494;11.768;2023-04-01T00:03:41;8.10;86.77
69543;SHT31;56762;49.494;11.768;2023-04-01T00:06:12;8.14;87.34
69543;SHT31;56762;49.494;11.768;2023-04-01T00:08:40;8.14;86.96
69543;SHT31;56762;49.494;11.768;2023-04-01T00:11:08;8.08;87.19
69543;SHT31;56762;49.494;11.768;2023-04-01T00:13:38;8.10;87.03
69543;SHT31;56762;49.494;11.768;2023-04-01T00:16:06;8.04;87.21
69543;SHT31;56762;49.494;11.768;2023-04-01T00:18:46;8.04;86.98
69543;SHT31;56762;49.494;11.768;2023-04-01T00:21:15;8.06;86.84
69543;SHT31;56762;49.494;11.768;2023-04-01T00:23:43;8.04;86.89
69543;SHT31;56762;49.494;11.768;2023-04-01T00:26:11;8.08;86.51
69543;SHT31;56762;49.494;11.768;2023-04-01T00:28:42;8.13;86.30
69543;SHT31;56762;49.494;11.768;2023-04-01T00:31:10;8.11;86.58
69543;SHT31;56762;49.494;11.768;2023-04-01T00:33:39;8.16;86.56
69543;SHT31;56762;49.494;11.768;2023-04-01T00:36:09;8.11;86.63
69543;SHT31;56762;49.494;11.768;2023-04-01T00:38:38;8.13;86.73
69543;SHT31;56762;49.494;11.768;2023-04-01T00:41:07;8.13;86.59
69543;SHT31;56762;49.494;11.768;2023-04-01T00:43:35;8.16;86.62
69543;SHT31;56762;49.494;11.768;2023-04-01T00:46:04;8.20;86.74
69543;SHT31;56762;49.494;11.768;2023-04-01T00:48:34;8.18;86.63
69543;SHT31;56762;49.494;11.768;2023-04-01T00:51:06;8.17;86.50
69543;SHT31;56762;49.494;11.768;2023-04-01T00:53:38;8.20;86.14
69543;SHT31;56762;49.494;11.768;2023-04-01T00:56:11;8.16;86.55
69543;SHT31;56762;49.494;11.768;2023-04-01T00:58:43;8.16;86.01
69543;SHT31;56762;49.494;11.768;2023-04-01T01:01:13;8.18;85.72
69543;SHT31;56762;49.494;11.768;2023-04-01T01:03:41;8.18;85.75
69543;SHT31;56762;49.494;11.768;2023-04-01T01:06:22;8.18;85.72
69543;SHT31;56762;49.494;11.768;2023-04-01T01:09:10;8.17;85.40
69543;SHT31;56762;49.494;11.768;2023-04-01T01:11:42;8.20;85.67
69543;SHT31;56762;49.494;11.768;2023-04-01T01:14:22;8.17;85.55
69543;SHT31;56762;49.494;11.768;2023-04-01T01:16:58;8.18;85.37
69543;SHT31;56762;49.494;11.768;2023-04-01T01:19:44;8.18;85.13
69543;SHT31;56762;49.494;11.768;2023-04-01T01:22:25;8.25;85.05
69543;SHT31;56762;49.494;11.768;2023-04-01T01:25:10;8.20;85.30
69543;SHT31;56762;49.494;11.768;2023-04-01T01:27:42;8.21;85.39
69543;SHT31;56762;49.494;11.768;2023-04-01T01:30:32;8.21;84.65
69543;SHT31;56762;49.494;11.768;2023-04-01T01:33:32;8.24;84.41
69543;SHT31;56762;49.494;11.768;2023-04-01T01:36:06;8.23;85.20
69543;SHT31;56762;49.494;11.768;2023-04-01T01:38:37;8.27;84.70
69543;SHT31;56762;49.494;11.768;2023-04-01T01:41:06;8.25;84.07
69543;SHT31;56762;49.494;11.768;2023-04-01T01:43:37;8.31;84.74
69543;SHT31;56762;49.494;11.768;2023-04-01T01:46:08;8.28;84.62
69543;SHT31;56762;49.494;11.768;2023-04-01T01:48:38;8.24;84.88
69543;SHT31;56762;49.494;11.768;2023-04-01T01:51:10;8.25;84.68
69543;SHT31;56762;49.494;11.768;2023-04-01T01:53:38;8.23;85.10
69543;SHT31;56762;49.494;11.768;2023-04-01T01:56:06;8.21;85.12
69543;SHT31;56762;49.494;11.768;2023-04-01T01:58:38;8.20;85.41
69543;SHT31;56762;49.494;11.768;2023-04-01T02:01:11;8.20;85.72
69543;SHT31;56762;49.494;11.768;2023-04-01T02:03:39;8.20;85.13
69543;SHT31;56762;49.494;11.768;2023-04-01T02:06:13;8.23;85.17
69543;SHT31;56762;49.494;11.768;2023-04-01T02:08:45;8.14;85.59
69543;SHT31;56762;49.494;11.768;2023-04-01T02:11:17;8.17;85.95
69543;SHT31;56762;49.494;11.768;2023-04-01T02:13:50;8.17;86.33
69543;SHT31;56762;49.494;11.768;2023-04-01T02:16:23;8.16;86.68
69543;SHT31;56762;49.494;11.768;2023-04-01T02:18:54;8.16;86.19
69543;SHT31;56762;49.494;11.768;2023-04-01T02:21:27;8.16;85.44
69543;SHT31;56762;49.494;11.768;2023-04-01T02:23:58;8.16;85.94
69543;SHT31;56762;49.494;11.768;2023-04-01T02:26:28;8.13;86.33
69543;SHT31;56762;49.494;11.768;2023-04-01T02:28:57;8.11;86.41
69543;SHT31;56762;49.494;11.768;2023-04-01T02:31:27;8.11;86.81
69543;SHT31;56762;49.494;11.768;2023-04-01T02:33:55;8.10;86.91
69543;SHT31;56762;49.494;11.768;2023-04-01T02:36:25;8.08;87.23
69543;SHT31;56762;49.494;11.768;2023-04-01T02:38:54;8.13;87.00
69543;SHT31;56762;49.494;11.768;2023-04-01T02:41:25;8.04;86.72
69543;SHT31;56762;49.494;11.768;2023-04-01T02:43:53;8.00;87.01
69543;SHT31;56762;49.494;11.768;2023-04-01T02:46:21;7.96;87.78
69543;SHT31;56762;49.494;11.768;2023-04-01T02:48:49;7.91;87.76
69543;SHT31;56762;49.494;11.768;2023-04-01T02:51:17;7.90;87.86
69543;SHT31;56762;49.494;11.768;2023-04-01T02:53:45;7.91;87.85
69543;SHT31;56762;49.494;11.768;2023-04-01T02:56:13;7.94;87.49
69543;SHT31;56762;49.494;11.768;2023-04-01T02:58:41;7.94;87.04
69543;SHT31;56762;49.494;11.768;2023-04-01T03:01:10;7.98;87.15
69543;SHT31;56762;49.494;11.768;2023-04-01T03:03:38;8.00;86.84
69543;SHT31;56762;49.494;11.768;2023-04-01T03:06:06;7.98;86.83
69543;SHT31;56762;49.494;11.768;2023-04-01T03:08:34;7.94;86.44
69543;SHT31;56762;49.494;11.768;2023-04-01T03:11:04;7.98;86.36
69543;SHT31;56762;49.494;11.768;2023-04-01T03:13:32;7.97;86.13
69543;SHT31;56762;49.494;11.768;2023-04-01T03:16:00;8.00;85.22
69543;SHT31;56762;49.494;11.768;2023-04-01T03:18:29;8.00;85.33
69543;SHT31;56762;49.494;11.768;2023-04-01T03:20:57;8.06;85.54
69543;SHT31;56762;49.494;11.768;2023-04-01T03:23:25;8.07;85.70
69543;SHT31;56762;49.494;11.768;2023-04-01T03:25:53;8.03;85.74
69543;SHT31;56762;49.494;11.768;2023-04-01T03:28:22;8.04;85.60
69543;SHT31;56762;49.494;11.768;2023-04-01T03:30:50;8.00;85.27
69543;SHT31;56762;49.494;11.768;2023-04-01T03:33:18;8.04;84.16
69543;SHT31;56762;49.494;11.768;2023-04-01T03:35:46;8.10;84.30
69543;SHT31;56762;49.494;11.768;2023-04-01T03:38:14;8.04;84.27
69543;SHT31;56762;49.494;11.768;2023-04-01T03:40:42;8.04;84.62
69543;SHT31;56762;49.494;11.768;2023-04-01T03:43:10;8.01;84.22
69543;SHT31;56762;49.494;11.768;2023-04-01T03:45:44;8.03;84.28
69543;SHT31;56762;49.494;11.768;2023-04-01T03:48:13;8.08;84.76
69543;SHT31;56762;49.494;11.768;2023-04-01T03:50:41;8.07;84.26
69543;SHT31;56762;49.494;11.768;2023-04-01T03:53:10;8.10;83.86
69543;SHT31;56762;49.494;11.768;2023-04-01T03:55:38;8.11;84.00
69543;SHT31;56762;49.494;11.768;2023-04-01T03:58:07;8.11;84.02
69543;SHT31;56762;49.494;11.768;2023-04-01T04:00:35;8.10;83.84
69543;SHT31;56762;49.494;11.768;2023-04-01T04:03:05;8.11;83.64
69543;SHT31;56762;49.494;11.768;2023-04-01T04:05:33;8.10;83.78
69543;SHT31;56762;49.494;11.768;2023-04-01T04:08:02;8.11;83.49
69543;SHT31;56762;49.494;11.768;2023-04-01T04:10:30;8.13;83.76
69543;SHT31;56762;49.494;11.768;2023-04-01T04:12:58;8.14;83.64
69543;SHT31;56762;49.494;11.768;2023-04-01T04:15:26;8.11;83.83
69543;SHT31;56762;49.494;11.768;2023-04-01T04:17:54;8.08;84.25
69543;SHT31;56762;49.494;11.768;2023-04-01T04:20:23;8.13;83.51
69543;SHT31;56762;49.494;11.768;2023-04-01T04:22:51;8.10;83.76
69543;SHT31;56762;49.494;11.768;2023-04-01T04:25:19;8.08;83.72
69543;SHT31;56762;49.494;11.768;2023-04-01T04:27:46;8.11;84.16
69543;SHT31;56762;49.494;11.768;2023-04-01T04:30:16;8.14;83.90
69543;SHT31;56762;49.494;11.768;2023-04-01T04:32:44;8.11;83.81
69543;SHT31;56762;49.494;11.768;2023-04-01T04:35:12;8.08;83.59
69543;SHT31;56762;49.494;11.768;2023-04-01T04:37:41;8.10;83.64
69543;SHT31;56762;49.494;11.768;2023-04-01T04:40:09;8.08;83.61
69543;SHT31;56762;49.494;11.768;2023-04-01T04:42:37;8.11;83.80
69543;SHT31;56762;49.494;11.768;2023-04-01T04:45:06;8.11;83.70
69543;SHT31;56762;49.494;11.768;2023-04-01T04:47:34;8.13;83.27
69543;SHT31;56762;49.494;11.768;2023-04-01T04:50:02;8.18;83.24
69543;SHT31;56762;49.494;11.768;2023-04-01T04:52:30;8.16;83.66
69543;SHT31;56762;49.494;11.768;2023-04-01T04:54:59;8.11;83.45
69543;SHT31;56762;49.494;11.768;2023-04-01T04:57:27;8.14;83.44
69543;SHT31;56762;49.494;11.768;2023-04-01T04:59:55;8.13;83.08
69543;SHT31;56762;49.494;11.768;2023-04-01T05:02:23;8.13;83.26
69543;SHT31;56762;49.494;11.768;2023-04-01T05:04:51;8.21;82.49
69543;SHT31;56762;49.494;11.768;2023-04-01T05:07:19;8.17;82.14
69543;SHT31;56762;49.494;11.768;2023-04-01T05:09:47;8.17;82.77
69543;SHT31;56762;49.494;11.768;2023-04-01T05:12:16;8.17;83.05
69543;SHT31;56762;49.494;11.768;2023-04-01T05:14:44;8.18;82.54
69543;SHT31;56762;49.494;11.768;2023-04-01T05:17:12;8.21;82.61
69543;SHT31;56762;49.494;11.768;2023-04-01T05:19:40;8.21;83.36
69543;SHT31;56762;49.494;11.768;2023-04-01T05:22:08;8.16;83.14
69543;SHT31;56762;49.494;11.768;2023-04-01T05:24:36;8.08;84.05
69543;SHT31;56762;49.494;11.768;2023-04-01T05:27:04;8.08;84.22
69543;SHT31;56762;49.494;11.768;2023-04-01T05:29:33;8.13;83.73
69543;SHT31;56762;49.494;11.768;2023-04-01T05:32:01;8.14;84.39
69543;SHT31;56762;49.494;11.768;2023-04-01T05:34:29;8.14;83.45
69543;SHT31;56762;49.494;11.768;2023-04-01T05:36:58;8.08;84.11
69543;SHT31;56762;49.494;11.768;2023-04-01T05:39:26;8.11;84.23
69543;SHT31;56762;49.494;11.768;2023-04-01T05:41:53;8.13;84.27
69543;SHT31;56762;49.494;11.768;2023-04-01T05:44:21;8.20;83.69
69543;SHT31;56762;49.494;11.768;2023-04-01T05:46:50;8.16;84.02
69543;SHT31;56762;49.494;11.768;2023-04-01T05:49:18;8.17;84.33
69543;SHT31;56762;49.494;11.768;2023-04-01T05:51:46;8.16;84.54
69543;SHT31;56762;49.494;11.768;2023-04-01T05:54:14;8.17;84.64
69543;SHT31;56762;49.494;11.768;2023-04-01T05:56:42;8.23;83.79
69543;SHT31;56762;49.494;11.768;2023-04-01T05:59:13;8.18;83.76
69543;SHT31;56762;49.494;11.768;2023-04-01T06:01:41;8.20;84.31
69543;SHT31;56762;49.494;11.768;2023-04-01T06:04:13;8.30;84.97
69543;SHT31;56762;49.494;11.768;2023-04-01T06:06:42;8.37;84.99
69543;SHT31;56762;49.494;11.768;2023-04-01T06:09:13;8.34;84.59
69543;SHT31;56762;49.494;11.768;2023-04-01T06:11:55;8.35;84.40
69543;SHT31;56762;49.494;11.768;2023-04-01T06:14:35;8.44;84.09
69543;SHT31;56762;49.494;11.768;2023-04-01T06:17:20;8.44;84.88
69543;SHT31;56762;49.494;11.768;2023-04-01T06:19:58;8.54;84.31
69543;SHT31;56762;49.494;11.768;2023-04-01T06:22:55;8.55;83.36
69543;SHT31;56762;49.494;11.768;2023-04-01T06:25:53;8.56;82.28
69543;SHT31;56762;49.494;11.768;2023-04-01T06:28:44;8.58;82.64
69543;SHT31;56762;49.494;11.768;2023-04-01T06:31:24;8.64;82.73
69543;SHT31;56762;49.494;11.768;2023-04-01T06:34:08;8.69;82.36
69543;SHT31;56762;49.494;11.768;2023-04-01T06:40:12;8.78;80.96
69543;SHT31;56762;49.494;11.768;2023-04-01T06:43:05;8.93;80.62
69543;SHT31;56762;49.494;11.768;2023-04-01T06:45:43;8.99;80.86
69543;SHT31;56762;49.494;11.768;2023-04-01T06:48:38;9.00;80.85
69543;SHT31;56762;49.494;11.768;2023-04-01T06:51:15;9.02;82.09
69543;SHT31;56762;49.494;11.768;2023-04-01T06:53:52;9.09;81.75
69543;SHT31;56762;49.494;11.768;2023-04-01T06:56:25;9.16;80.90
69543;SHT31;56762;49.494;11.768;2023-04-01T06:58:57;9.12;81.70
69543;SHT31;56762;49.494;11.768;2023-04-01T07:01:33;9.15;82.09
69543;SHT31;56762;49.494;11.768;2023-04-01T07:04:05;9.12;81.60
69543;SHT31;56762;49.494;11.768;2023-04-01T07:06:37;9.17;82.01
69543;SHT31;56762;49.494;11.768;2023-04-01T07:09:09;9.19;82.23
69543;SHT31;56762;49.494;11.768;2023-04-01T07:11:40;9.27;81.95
69543;SHT31;56762;49.494;11.768;2023-04-01T07:14:16;9.30;81.69
69543;SHT31;56762;49.494;11.768;2023-04-01T07:16:49;9.38;80.88
69543;SHT31;56762;49.494;11.768;2023-04-01T07:19:24;9.52;81.20
69543;SHT31;56762;49.494;11.768;2023-04-01T07:22:00;9.59;80.71
69543;SHT31;56762;49.494;11.768;2023-04-01T07:24:33;9.65;79.90
69543;SHT31;56762;49.494;11.768;2023-04-01T07:27:03;9.73;78.88
69543;SHT31;56762;49.494;11.768;2023-04-01T07:29:33;9.79;78.29
69543;SHT31;56762;49.494;11.768;2023-04-01T07:32:24;9.88;78.54
69543;SHT31;56762;49.494;11.768;2023-04-01T07:35:16;9.85;76.69
69543;SHT31;56762;49.494;11.768;2023-04-01T07:37:56;9.94;76.19
69543;SHT31;56762;49.494;11.768;2023-04-01T07:40:32;9.87;75.31
69543;SHT31;56762;49.494;11.768;2023-04-01T07:43:17;9.98;75.51
69543;SHT31;56762;49.494;11.768;2023-04-01T07:45:53;10.03;76.11
69543;SHT31;56762;49.494;11.768;2023-04-01T07:48:29;10.13;76.00
69543;SHT31;56762;49.494;11.768;2023-04-01T07:51:02;10.26;75.56
69543;SHT31;56762;49.494;11.768;2023-04-01T07:53:35;10.32;75.36
69543;SHT31;56762;49.494;11.768;2023-04-01T07:56:07;10.33;75.65
69543;SHT31;56762;49.494;11.768;2023-04-01T07:58:47;10.39;76.41
69543;SHT31;56762;49.494;11.768;2023-04-01T08:01:22;10.35;75.54
69543;SHT31;56762;49.494;11.768;2023-04-01T08:04:06;10.37;75.80
69543;SHT31;56762;49.494;11.768;2023-04-01T08:06:42;10.45;76.28
69543;SHT31;56762;49.494;11.768;2023-04-01T08:09:21;10.39;75.18
69543;SHT31;56762;49.494;11.768;2023-04-01T08:12:01;10.30;76.10
69543;SHT31;56762;49.494;11.768;2023-04-01T08:14:37;10.42;75.48
69543;SHT31;56762;49.494;11.768;2023-04-01T08:17:15;10.43;75.11
69543;SHT31;56762;49.494;11.768;2023-04-01T08:19:52;10.37;75.16
69543;SHT31;56762;49.494;11.768;2023-04-01T08:22:26;10.39;75.23
69543;SHT31;56762;49.494;11.768;2023-04-01T08:24:57;10.33;75.51
69543;SHT31;56762;49.494;11.768;2023-04-01T08:27:34;10.30;75.73
69543;SHT31;56762;49.494;11.768;2023-04-01T08:30:18;10.30;75.69
69543;SHT31;56762;49.494;11.768;2023-04-01T08:32:49;10.32;75.86
69543;SHT31;56762;49.494;11.768;2023-04-01T08:35:26;10.20;75.77
69543;SHT31;56762;49.494;11.768;2023-04-01T08:38:01;10.20;75.23
69543;SHT31;56762;49.494;11.768;2023-04-01T08:40:44;10.08;74.58
69543;SHT31;56762;49.494;11.768;2023-04-01T08:43:20;10.01;75.83
69543;SHT31;56762;49.494;11.768;2023-04-01T08:46:06;10.03;75.60
69543;SHT31;56762;49.494;11.768;2023-04-01T08:49:02;10.08;75.54
69543;SHT31;56762;49.494;11.768;2023-04-01T08:51:52;10.06;74.88
69543;SHT31;56762;49.494;11.768;2023-04-01T08:57:44;10.13;75.31
69543;SHT31;56762;49.494;11.768;2023-04-01T09:00:24;10.23;76.04
69543;SHT31;56762;49.494;11.768;2023-04-01T09:03:24;10.32;74.76
69543;SHT31;56762;49.494;11.768;2023-04-01T09:06:10;10.45;74.50
69543;SHT31;56762;49.494;11.768;2023-04-01T09:08:52;10.56;74.18
69543;SHT31;56762;49.494;11.768;2023-04-01T09:11:38;10.52;73.69
69543;SHT31;56762;49.494;11.768;2023-04-01T09:14:27;10.56;74.05
69543;SHT31;56762;49.494;11.768;2023-04-01T09:17:26;10.63;73.99
69543;SHT31;56762;49.494;11.768;2023-04-01T09:20:19;10.70;74.40
69543;SHT31;56762;49.494;11.768;2023-04-01T09:23:09;10.81;73.76
69543;SHT31;56762;49.494;11.768;2023-04-01T09:25:45;10.96;73.57
69543;SHT31;56762;49.494;11.768;2023-04-01T09:28:18;11.00;73.54
69543;SHT31;56762;49.494;11.768;2023-04-01T09:30:58;11.00;73.21
69543;SHT31;56762;49.494;11.768;2023-04-01T09:34:12;11.06;73.25
69543;SHT31;56762;49.494;11.768;2023-04-01T09:36:47;11.12;73.21
69543;SHT31;56762;49.494;11.768;2023-04-01T09:39:35;11.12;73.33
69543;SHT31;56762;49.494;11.768;2023-04-01T09:42:33;11.31;73.38
69543;SHT31;56762;49.494;11.768;2023-04-01T09:45:07;11.40;72.82
69543;SHT31;56762;49.494;11.768;2023-04-01T09:47:49;11.61;73.78
69543;SHT31;56762;49.494;11.768;2023-04-01T09:50:31;11.75;74.59
69543;SHT31;56762;49.494;11.768;2023-04-01T09:53:27;11.70;73.52
69543;SHT31;56762;49.494;11.768;2023-04-01T09:56:23;11.85;75.52
69543;SHT31;56762;49.494;11.768;2023-04-01T10:02:34;11.93;73.67
69543;SHT31;56762;49.494;11.768;2023-04-01T10:08:57;11.85;73.25
69543;SHT31;56762;49.494;11.768;2023-04-01T10:18:04;11.55;75.14
69543;SHT31;56762;49.494;11.768;2023-04-01T10:21:00;11.72;75.15
69543;SHT31;56762;49.494;11.768;2023-04-01T10:24:03;11.66;74.10
69543;SHT31;56762;49.494;11.768;2023-04-01T10:26:49;11.58;74.94
69543;SHT31;56762;49.494;11.768;2023-04-01T10:29:43;11.70;74.83
69543;SHT31;56762;49.494;11.768;2023-04-01T10:32:29;11.86;75.86
69543;SHT31;56762;49.494;11.768;2023-04-01T10:35:20;11.65;73.02
69543;SHT31;56762;49.494;11.768;2023-04-01T10:41:16;12.00;75.76
69543;SHT31;56762;49.494;11.768;2023-04-01T10:50:25;11.51;75.42
69543;SHT31;56762;49.494;11.768;2023-04-01T10:53:19;11.51;76.07
69543;SHT31;56762;49.494;11.768;2023-04-01T10:56:21;11.66;76.14
69543;SHT31;56762;49.494;11.768;2023-04-01T10:59:45;11.82;74.55
69543;SHT31;56762;49.494;11.768;2023-04-01T11:02:45;11.63;74.99
69543;SHT31;56762;49.494;11.768;2023-04-01T11:05:50;11.52;74.93
69543;SHT31;56762;49.494;11.768;2023-04-01T11:11:54;11.40;74.88
69543;SHT31;56762;49.494;11.768;2023-04-01T11:14:53;11.54;74.90
69543;SHT31;56762;49.494;11.768;2023-04-01T11:18:03;11.58;74.95
69543;SHT31;56762;49.494;11.768;2023-04-01T11:21:08;11.69;74.78
69543;SHT31;56762;49.494;11.768;2023-04-01T11:23:50;11.77;74.71
69543;SHT31;56762;49.494;11.768;2023-04-01T11:26:33;11.82;74.32
69543;SHT31;56762;49.494;11.768;2023-04-01T11:29:28;11.89;75.50
69543;SHT31;56762;49.494;11.768;2023-04-01T11:32:09;11.80;74.95
69543;SHT31;56762;49.494;11.768;2023-04-01T11:34:51;11.62;74.87
69543;SHT31;56762;49.494;11.768;2023-04-01T11:37:30;11.65;74.37
69543;SHT31;56762;49.494;11.768;2023-04-01T11:40:07;11.77;75.30
69543;SHT31;56762;49.494;11.768;2023-04-01T11:42:43;11.79;73.93
69543;SHT31;56762;49.494;11.768;2023-04-01T11:45:22;11.83;74.41
69543;SHT31;56762;49.494;11.768;2023-04-01T11:50:52;11.65;75.11
69543;SHT31;56762;49.494;11.768;2023-04-01T11:53:27;11.43;75.68
69543;SHT31;56762;49.494;11.768;2023-04-01T11:56:07;11.29;76.86
69543;SHT31;56762;49.494;11.768;2023-04-01T12:01:52;11.31;77.98
69543;SHT31;56762;49.494;11.768;2023-04-01T12:04:41;11.43;79.07
69543;SHT31;56762;49.494;11.768;2023-04-01T12:07:21;11.36;77.81
69543;SHT31;56762;49.494;11.768;2023-04-01T12:09:58;11.32;79.61
69543;SHT31;56762;49.494;11.768;2023-04-01T12:12:36;11.04;78.64
69543;SHT31;56762;49.494;11.768;2023-04-01T12:15:30;10.91;80.53
69543;SHT31;56762;49.494;11.768;2023-04-01T12:18:10;10.98;80.00
69543;SHT31;56762;49.494;11.768;2023-04-01T12:20:45;11.03;79.58
69543;SHT31;56762;49.494;11.768;2023-04-01T12:23:37;10.97;80.68
69543;SHT31;56762;49.494;11.768;2023-04-01T12:26:22;11.12;81.33
69543;SHT31;56762;49.494;11.768;2023-04-01T12:29:08;11.22;80.14
69543;SHT31;56762;49.494;11.768;2023-04-01T12:31:49;11.27;80.58
69543;SHT31;56762;49.494;11.768;2023-04-01T12:37:20;11.18;80.27
69543;SHT31;56762;49.494;11.768;2023-04-01T12:39:58;11.07;80.60
69543;SHT31;56762;49.494;11.768;2023-04-01T12:42:44;10.98;80.69
69543;SHT31;56762;49.494;11.768;2023-04-01T12:45:28;10.91;81.78
69543;SHT31;56762;49.494;11.768;2023-04-01T12:48:20;10.83;82.10
69543;SHT31;56762;49.494;11.768;2023-04-01T12:51:09;10.73;82.12
69543;SHT31;56762;49.494;11.768;2023-04-01T12:54:01;10.66;81.87
69543;SHT31;56762;49.494;11.768;2023-04-01T12:56:42;10.67;82.73
69543;SHT31;56762;49.494;11.768;2023-04-01T12:59:31;10.66;82.27
69543;SHT31;56762;49.494;11.768;2023-04-01T13:02:20;10.77;82.49
69543;SHT31;56762;49.494;11.768;2023-04-01T13:05:09;10.84;82.46
69543;SHT31;56762;49.494;11.768;2023-04-01T13:10:53;11.06;79.90
69543;SHT31;56762;49.494;11.768;2023-04-01T13:13:39;11.00;79.65
69543;SHT31;56762;49.494;11.768;2023-04-01T13:16:13;11.14;80.53
69543;SHT31;56762;49.494;11.768;2023-04-01T13:18:54;11.28;80.72
69543;SHT31;56762;49.494;11.768;2023-04-01T13:21:32;11.45;80.81
69543;SHT31;56762;49.494;11.768;2023-04-01T13:24:05;11.49;80.28
69543;SHT31;56762;49.494;11.768;2023-04-01T13:26:48;11.51;80.00
69543;SHT31;56762;49.494;11.768;2023-04-01T13:29:23;11.52;80.22
69543;SHT31;56762;49.494;11.768;2023-04-01T13:32:13;11.46;80.22
69543;SHT31;56762;49.494;11.768;2023-04-01T13:35:03;11.34;80.46
69543;SHT31;56762;49.494;11.768;2023-04-01T13:37:49;11.25;80.75
69543;SHT31;56762;49.494;11.768;2023-04-01T13:40:39;11.06;80.04
69543;SHT31;56762;49.494;11.768;2023-04-01T13:43:32;10.98;79.88
69543;SHT31;56762;49.494;11.768;2023-04-01T13:46:14;10.91;82.04
69543;SHT31;56762;49.494;11.768;2023-04-01T13:49:11;10.90;81.87
69543;SHT31;56762;49.494;11.768;2023-04-01T13:52:02;10.81;82.13
69543;SHT31;56762;49.494;11.768;2023-04-01T13:54:53;10.74;82.60
69543;SHT31;56762;49.494;11.768;2023-04-01T13:57:37;10.71;83.64
69543;SHT31;56762;49.494;11.768;2023-04-01T14:00:22;10.74;82.95
69543;SHT31;56762;49.494;11.768;2023-04-01T14:03:03;10.70;83.24
69543;SHT31;56762;49.494;11.768;2023-04-01T14:05:49;10.87;83.56
69543;SHT31;56762;49.494;11.768;2023-04-01T14:08:30;10.94;82.93
69543;SHT31;56762;49.494;11.768;2023-04-01T14:11:10;10.91;82.24
69543;SHT31;56762;49.494;11.768;2023-04-01T14:13:50;10.83;82.01
69543;SHT31;56762;49.494;11.768;2023-04-01T14:16:40;10.77;81.72
69543;SHT31;56762;49.494;11.768;2023-04-01T14:19:24;10.80;81.93
69543;SHT31;56762;49.494;11.768;2023-04-01T14:22:02;10.71;81.49
69543;SHT31;56762;49.494;11.768;2023-04-01T14:24:45;10.77;81.92
69543;SHT31;56762;49.494;11.768;2023-04-01T14:27:31;10.88;81.86
69543;SHT31;56762;49.494;11.768;2023-04-01T14:30:25;10.90;80.76
69543;SHT31;56762;49.494;11.768;2023-04-01T14:33:02;10.96;81.21
69543;SHT31;56762;49.494;11.768;2023-04-01T14:35:37;11.07;81.77
69543;SHT31;56762;49.494;11.768;2023-04-01T14:38:26;11.04;81.26
69543;SHT31;56762;49.494;11.768;2023-04-01T14:41:00;11.00;81.86
69543;SHT31;56762;49.494;11.768;2023-04-01T14:49:32;10.74;81.55
69543;SHT31;56762;49.494;11.768;2023-04-01T14:52:08;10.70;81.53
69543;SHT31;56762;49.494;11.768;2023-04-01T14:54:40;10.66;80.40
69543;SHT31;56762;49.494;11.768;2023-04-01T14:57:12;10.68;81.34
69543;SHT31;56762;49.494;11.768;2023-04-01T14:59:45;10.77;82.19
69543;SHT31;56762;49.494;11.768;2023-04-01T15:02:31;10.83;82.38
69543;SHT31;56762;49.494;11.768;2023-04-01T15:05:13;10.90;81.86
69543;SHT31;56762;49.494;11.768;2023-04-01T15:08:03;10.81;81.22
69543;SHT31;56762;49.494;11.768;2023-04-01T15:10:46;10.78;81.37
69543;SHT31;56762;49.494;11.768;2023-04-01T15:13:26;10.83;81.75
69543;SHT31;56762;49.494;11.768;2023-04-01T15:16:06;10.76;82.14
69543;SHT31;56762;49.494;11.768;2023-04-01T15:18:46;10.80;82.07
69543;SHT31;56762;49.494;11.768;2023-04-01T15:21:43;10.85;82.31
69543;SHT31;56762;49.494;11.768;2023-04-01T15:24:18;10.80;81.69
69543;SHT31;56762;49.494;11.768;2023-04-01T15:27:09;10.78;81.64
69543;SHT31;56762;49.494;11.768;2023-04-01T15:29:52;10.70;81.79
69543;SHT31;56762;49.494;11.768;2023-04-01T15:32:38;10.67;82.35
69543;SHT31;56762;49.494;11.768;2023-04-01T15:35:19;10.60;82.34
69543;SHT31;56762;49.494;11.768;2023-04-01T15:37:54;10.60;82.47
69543;SHT31;56762;49.494;11.768;2023-04-01T15:40:24;10.59;82.66
69543;SHT31;56762;49.494;11.768;2023-04-01T15:43:05;10.56;82.40
69543;SHT31;56762;49.494;11.768;2023-04-01T15:45:43;10.52;82.88
69543;SHT31;56762;49.494;11.768;2023-04-01T15:48:26;10.42;82.54
69543;SHT31;56762;49.494;11.768;2023-04-01T15:51:06;10.47;83.06
69543;SHT31;56762;49.494;11.768;2023-04-01T15:53:56;10.53;82.99
69543;SHT31;56762;49.494;11.768;2023-04-01T15:56:38;10.53;82.73
69543;SHT31;56762;49.494;11.768;2023-04-01T15:59:20;10.47;83.11
69543;SHT31;56762;49.494;11.768;2023-04-01T16:01:58;10.37;82.65
69543;SHT31;56762;49.494;11.768;2023-04-01T16:04:38;10.32;83.58
69543;SHT31;56762;49.494;11.768;2023-04-01T16:07:19;10.32;83.44
69543;SHT31;56762;49.494;11.768;2023-04-01T16:10:04;10.40;83.66
69543;SHT31;56762;49.494;11.768;2023-04-01T16:12:46;10.33;85.13
69543;SHT31;56762;49.494;11.768;2023-04-01T16:15:24;10.29;84.06
69543;SHT31;56762;49.494;11.768;2023-04-01T16:18:25;10.20;83.92
69543;SHT31;56762;49.494;11.768;2023-04-01T16:21:00;10.15;84.49
69543;SHT31;56762;49.494;11.768;2023-04-01T16:23:37;10.15;84.87
69543;SHT31;56762;49.494;11.768;2023-04-01T16:26:15;10.12;84.58
69543;SHT31;56762;49.494;11.768;2023-04-01T16:28:53;10.12;84.66
69543;SHT31;56762;49.494;11.768;2023-04-01T16:31:32;10.13;84.95
69543;SHT31;56762;49.494;11.768;2023-04-01T16:34:08;10.06;85.28
69543;SHT31;56762;49.494;11.768;2023-04-01T16:36:43;10.09;85.02
69543;SHT31;56762;49.494;11.768;2023-04-01T16:39:26;10.06;84.81
69543;SHT31;56762;49.494;11.768;2023-04-01T16:42:14;10.01;85.04
69543;SHT31;56762;49.494;11.768;2023-04-01T16:44:54;9.97;84.74
69543;SHT31;56762;49.494;11.768;2023-04-01T16:47:27;9.87;84.78
69543;SHT31;56762;49.494;11.768;2023-04-01T16:49:59;9.81;85.32
69543;SHT31;56762;49.494;11.768;2023-04-01T16:52:51;9.75;85.98
69543;SHT31;56762;49.494;11.768;2023-04-01T16:55:35;9.68;85.96
69543;SHT31;56762;49.494;11.768;2023-04-01T16:58:06;9.65;86.29
69543;SHT31;56762;49.494;11.768;2023-04-01T17:00:37;9.67;86.23
69543;SHT31;56762;49.494;11.768;2023-04-01T17:03:12;9.64;85.68
69543;SHT31;56762;49.494;11.768;2023-04-01T17:06:03;9.64;86.02
69543;SHT31;56762;49.494;11.768;2023-04-01T17:11:33;9.50;86.42
69543;SHT31;56762;49.494;11.768;2023-04-01T17:14:14;9.48;86.65
69543;SHT31;56762;49.494;11.768;2023-04-01T17:16:55;9.44;86.84
69543;SHT31;56762;49.494;11.768;2023-04-01T17:19:42;9.38;86.81
69543;SHT31;56762;49.494;11.768;2023-04-01T17:22:22;9.37;86.74